Time;durP1;ratioP1;P1;durP2;ratioP2;P2;SDS_P1;SDS_P2;PMS_P1;PMS_P2;Temp;Humidity;BMP_temperature;BMP_pressure;BME280_temperature;BME280_humidity;BME280_pressure;Samples;Min_cycle;Max_cycle;Signal;HPM_P1;HPM_P2
2022/08/17 00:00:19;;;;;;;4.00;3.60;;;;;;;25.32;49.22;95545.13;5083063;28;20205;-84
2022/08/17 00:02:59;;;;;;;4.43;3.50;;;;;;;25.28;50.12;95533.13;5065338;28;20252;-84
2022/08/17 00:05:30;;;;;;;3.80;3.50;;;;;;;25.21;50.12;95522.66;5070208;28;20200;-85
2022/08/17 00:07:57;;;;;;;4.97;3.55;;;;;;;25.28;48.87;95527.59;5074297;28;20208;-84
2022/08/17 00:10:24;;;;;;;5.03;3.50;;;;;;;25.53;47.68;95529.25;5083043;28;20209;-83
2022/08/17 00:12:52;;;;;;;4.07;3.65;;;;;;;25.55;48.70;95529.72;5060935;28;20209;-83
2022/08/17 00:15:21;;;;;;;4.25;3.70;;;;;;;25.59;47.78;95513.28;5093863;28;20220;-84
2022/08/17 00:17:50;;;;;;;5.00;3.25;;;;;;;25.70;46.64;95528.22;5067834;28;20230;-84
2022/08/17 00:20:18;;;;;;;4.68;3.67;;;;;;;25.80;46.34;95527.75;5074992;28;20209;-84
2022/08/17 00:22:46;;;;;;;3.78;3.47;;;;;;;25.90;46.18;95521.75;5078788;28;20204;-83
2022/08/17 00:25:18;;;;;;;6.72;3.97;;;;;;;25.92;46.28;95513.94;5068907;28;20212;-83
2022/08/17 00:27:45;;;;;;;5.03;3.95;;;;;;;25.84;46.93;95516.81;5074926;28;20219;-83
2022/08/17 00:30:14;;;;;;;4.35;3.50;;;;;;;25.43;49.48;95515.91;5084894;28;20206;-84
2022/08/17 00:32:43;;;;;;;4.13;3.70;;;;;;;24.98;51.56;95512.38;5072430;28;20215;-84
2022/08/17 00:35:13;;;;;;;5.15;4.30;;;;;;;24.85;51.09;95522.56;5078083;28;20300;-83
2022/08/17 00:37:40;;;;;;;4.38;3.65;;;;;;;25.05;49.67;95523.66;5082281;28;20281;-84
2022/08/17 00:40:13;;;;;;;5.18;3.90;;;;;;;25.38;48.46;95527.16;5064212;28;20299;-84
2022/08/17 00:42:40;;;;;;;4.50;3.40;;;;;;;25.66;47.61;95521.78;5077835;28;20285;-83
2022/08/17 00:45:10;;;;;;;5.60;3.70;;;;;;;25.86;46.46;95506.22;5072081;28;20216;-85
2022/08/17 00:47:38;;;;;;;7.78;3.88;;;;;;;26.04;46.26;95515.84;5087365;28;20221;-85
2022/08/17 00:50:08;;;;;;;4.60;3.72;;;;;;;26.16;46.52;95517.78;5072348;28;20200;-83
2022/08/17 00:52:39;;;;;;;5.63;3.67;;;;;;;26.19;45.79;95525.41;5062743;28;20205;-84
2022/08/17 00:55:08;;;;;;;6.72;3.85;;;;;;;26.21;46.42;95521.09;5072451;28;20205;-84
2022/08/17 00:57:40;;;;;;;3.65;3.35;;;;;;;26.15;46.35;95521.72;5078243;28;20255;-84
2022/08/17 01:00:12;;;;;;;6.25;3.92;;;;;;;26.13;45.74;95521.25;5084842;28;20205;-84
2022/08/17 01:02:43;;;;;;;4.28;3.88;;;;;;;26.07;45.88;95520.69;5077391;28;20269;-84
2022/08/17 01:05:15;;;;;;;4.22;3.83;;;;;;;26.14;45.64;95514.56;5060715;28;20695;-84
2022/08/17 01:07:43;;;;;;;6.70;4.05;;;;;;;26.06;45.93;95523.81;5072058;28;20261;-85
2022/08/17 01:10:12;;;;;;;5.50;4.22;;;;;;;26.04;46.62;95537.16;5086217;28;20204;-84
2022/08/17 01:12:41;;;;;;;4.25;3.85;;;;;;;25.97;46.61;95527.50;5075934;28;20208;-84
2022/08/17 01:15:08;;;;;;;5.28;3.83;;;;;;;25.86;47.44;95536.66;5071049;28;20334;-84
2022/08/17 01:17:36;;;;;;;4.32;3.92;;;;;;;25.91;46.42;95531.69;5056839;28;20203;-83
2022/08/17 01:20:04;;;;;;;4.35;3.95;;;;;;;25.92;46.99;95536.06;5066876;28;20196;-84
2022/08/17 01:22:32;;;;;;;3.95;3.65;;;;;;;25.92;46.81;95530.53;5074674;28;20197;-83
2022/08/17 01:25:03;;;;;;;3.88;3.50;;;;;;;25.91;46.63;95539.16;5068074;28;20315;-84
2022/08/17 01:27:31;;;;;;;7.95;3.70;;;;;;;25.99;46.37;95541.81;5064220;28;20243;-84
2022/08/17 01:30:04;;;;;;;4.13;3.67;;;;;;;26.01;46.80;95544.22;5095583;28;20207;-84
2022/08/17 01:32:31;;;;;;;6.07;4.22;;;;;;;25.95;47.05;95551.94;5088742;28;20215;-84
2022/08/17 01:34:59;;;;;;;6.88;3.85;;;;;;;25.91;47.22;95566.81;5087124;28;20204;-83
2022/08/17 01:37:34;;;;;;;5.40;3.88;;;;;;;25.70;47.92;95566.13;5090620;28;20254;-84
2022/08/17 01:40:06;;;;;;;3.95;3.63;;;;;;;25.54;48.52;95560.44;5071477;28;20257;-84
2022/08/17 01:42:37;;;;;;;4.00;3.60;;;;;;;25.62;47.99;95565.91;5064394;28;20208;-84
2022/08/17 01:45:09;;;;;;;6.00;3.65;;;;;;;25.55;48.28;95571.16;5098980;28;20223;-84
2022/08/17 01:47:36;;;;;;;4.00;3.63;;;;;;;25.52;47.83;95577.38;5088477;28;20205;-84
2022/08/17 01:50:10;;;;;;;4.05;3.65;;;;;;;25.59;48.15;95572.13;5083695;28;20194;-84
2022/08/17 01:52:39;;;;;;;3.83;3.42;;;;;;;25.51;48.23;95575.78;5086856;28;20209;-84
2022/08/17 01:55:07;;;;;;;4.45;4.00;;;;;;;25.40;49.04;95573.81;5072930;28;20262;-84
2022/08/17 01:57:35;;;;;;;4.43;3.83;;;;;;;25.07;50.61;95576.63;5071175;28;20221;-83
2022/08/17 02:00:04;;;;;;;4.53;3.60;;;;;;;24.83;52.83;95582.84;5088544;28;20200;-83
2022/08/17 02:02:38;;;;;;;4.60;3.95;;;;;;;24.49;54.03;95583.97;5080390;28;20236;-84
2022/08/17 02:05:06;;;;;;;4.15;3.85;;;;;;;24.36;54.07;95585.03;5087192;28;20225;-84
2022/08/17 02:07:35;;;;;;;4.57;3.95;;;;;;;24.50;53.23;95586.38;5075689;28;20200;-84
2022/08/17 02:10:04;;;;;;;5.85;3.70;;;;;;;24.52;52.63;95581.31;5091108;28;20290;-84
2022/08/17 02:12:31;;;;;;;6.38;3.72;;;;;;;24.63;51.79;95575.41;5070844;28;20293;-83
2022/08/17 02:14:58;;;;;;;4.72;3.72;;;;;;;24.84;51.20;95567.88;5069794;28;20207;-83
2022/08/17 02:17:25;;;;;;;4.18;3.63;;;;;;;24.94;50.92;95588.75;5069219;28;20209;-84
2022/08/17 02:19:52;;;;;;;4.78;3.45;;;;;;;24.96;50.40;95592.00;5068788;28;20201;-83
2022/08/17 02:22:19;;;;;;;5.15;3.78;;;;;;;25.06;49.21;95597.09;5087039;28;20207;-84
2022/08/17 02:24:47;;;;;;;5.28;3.92;;;;;;;25.18;48.89;95605.41;5070205;28;20228;-84
2022/08/17 02:27:15;;;;;;;5.65;3.83;;;;;;;25.22;49.06;95601.63;5081705;28;20223;-84
2022/08/17 02:29:42;;;;;;;3.95;3.55;;;;;;;25.34;50.18;95622.97;5075651;28;20228;-84
2022/08/17 02:32:17;;;;;;;4.45;3.72;;;;;;;25.03;59.37;95636.44;5088529;28;20195;-83
2022/08/17 02:34:44;;;;;;;4.82;4.32;;;;;;;24.50;67.96;95629.72;5079289;28;20292;-84
2022/08/17 02:37:11;;;;;;;5.90;4.32;;;;;;;24.11;71.98;95634.50;5087145;28;20204;-84
2022/08/17 02:39:38;;;;;;;5.15;4.38;;;;;;;23.74;73.93;95643.59;5070900;28;20201;-84
2022/08/17 02:42:06;;;;;;;7.20;4.55;;;;;;;23.40;78.84;95636.25;5066311;28;20224;-84
2022/08/17 02:44:34;;;;;;;5.15;4.57;;;;;;;23.16;81.37;95636.00;5067603;28;20224;-84
2022/08/17 02:47:01;;;;;;;6.10;4.50;;;;;;;22.95;82.83;95633.94;5073603;28;20288;-84
2022/08/17 02:49:28;;;;;;;5.90;4.57;;;;;;;22.77;83.10;95634.28;5075570;28;20207;-83
2022/08/17 02:51:57;;;;;;;5.20;4.50;;;;;;;22.72;83.36;95642.66;5062409;28;20264;-84
2022/08/17 02:54:25;;;;;;;6.35;4.32;;;;;;;22.62;84.27;95632.81;5064667;28;20201;-84
2022/08/17 02:56:52;;;;;;;6.35;4.70;;;;;;;22.54;84.86;95642.66;5076856;28;20221;-83
2022/08/17 02:59:19;;;;;;;6.32;4.80;;;;;;;22.52;84.35;95636.69;5082253;28;20201;-84
2022/08/17 03:01:48;;;;;;;5.32;4.72;;;;;;;22.41;85.47;95638.13;5074238;28;20269;-83
2022/08/17 03:04:15;;;;;;;4.82;4.43;;;;;;;22.44;85.96;95643.00;5071243;28;20220;-83
2022/08/17 03:06:42;;;;;;;5.70;5.03;;;;;;;22.32;86.91;95640.06;5085611;28;20498;-84
2022/08/17 03:09:09;;;;;;;5.18;4.35;;;;;;;22.31;86.31;95632.94;5077088;28;20301;-84
2022/08/17 03:11:36;;;;;;;6.15;4.55;;;;;;;22.32;88.07;95644.75;5069158;28;20209;-82
2022/08/17 03:14:03;;;;;;;6.55;4.13;;;;;;;22.25;86.44;95645.22;5076584;28;20192;-83
2022/08/17 03:16:30;;;;;;;5.72;4.68;;;;;;;22.29;87.54;95651.69;5073393;28;20220;-84
2022/08/17 03:18:58;;;;;;;6.78;4.28;;;;;;;22.21;88.50;95647.81;5085772;28;20211;-84
2022/08/17 03:21:26;;;;;;;4.55;4.15;;;;;;;22.20;86.76;95659.16;5073972;28;20197;-84
2022/08/17 03:23:53;;;;;;;9.25;4.60;;;;;;;22.23;85.86;95658.47;5070645;28;20255;-83
2022/08/17 03:26:20;;;;;;;4.72;4.25;;;;;;;22.30;83.07;95669.00;5078761;28;20203;-83
2022/08/17 03:28:47;;;;;;;5.13;4.68;;;;;;;22.45;78.96;95669.38;5095963;28;20296;-83
2022/08/17 03:31:14;;;;;;;6.13;5.00;;;;;;;22.84;76.69;95689.63;5080274;28;20215;-84
2022/08/17 03:33:41;;;;;;;5.80;4.50;;;;;;;22.83;77.48;95693.53;5067421;28;20218;-84
2022/08/17 03:36:10;;;;;;;5.30;4.80;;;;;;;22.78;78.57;95686.25;5079048;28;20201;-83
2022/08/17 03:38:38;;;;;;;5.18;4.50;;;;;;;22.69;80.50;95679.91;5074036;28;20298;-83
2022/08/17 03:41:05;;;;;;;5.05;4.60;;;;;;;22.65;77.74;95676.97;5059478;28;20221;-83
2022/08/17 03:43:33;;;;;;;6.55;5.07;;;;;;;22.78;76.44;95685.44;5069169;28;20209;-84
2022/08/17 03:57:06;;;;;;;5.70;4.88;;;;;;;22.54;80.53;95697.69;5082898;28;20258;-83
2022/08/17 03:59:33;;;;;;;6.50;4.35;;;;;;;22.51;80.49;95690.09;5071074;28;20270;-84
2022/08/17 04:02:07;;;;;;;5.32;4.82;;;;;;;22.54;78.72;95681.16;5085696;28;20289;-84
2022/08/17 04:04:35;;;;;;;5.43;4.93;;;;;;;22.56;78.35;95680.84;5058570;28;20245;-83
2022/08/17 04:07:04;;;;;;;7.75;5.05;;;;;;;22.57;78.45;95680.53;5078119;28;20212;-84
2022/08/17 04:09:31;;;;;;;5.10;4.55;;;;;;;22.49;84.14;95681.34;5066889;28;20240;-84
2022/08/17 04:11:58;;;;;;;7.38;4.82;;;;;;;22.37;83.13;95680.38;5073130;28;20201;-84
2022/08/17 04:14:25;;;;;;;6.00;4.70;;;;;;;22.39;82.17;95686.34;5070394;28;20220;-83
2022/08/17 04:16:52;;;;;;;8.90;6.30;;;;;;;22.32;84.59;95689.56;5073615;28;20299;-83
2022/08/17 04:19:19;;;;;;;5.82;5.32;;;;;;;22.23;83.96;95696.97;5067780;28;20292;-84
2022/08/17 04:21:46;;;;;;;8.77;5.90;;;;;;;22.18;85.21;95695.22;5074032;28;20266;-84
2022/08/17 04:24:15;;;;;;;5.55;5.00;;;;;;;22.23;85.49;95685.97;5066535;28;20228;-84
2022/08/17 04:26:42;;;;;;;5.47;4.57;;;;;;;22.13;86.26;95700.03;5065662;28;20287;-83
2022/08/17 04:29:09;;;;;;;8.88;5.68;;;;;;;22.10;88.14;95712.50;5085723;28;20200;-83
2022/08/17 04:31:36;;;;;;;6.95;5.22;;;;;;;22.08;90.39;95720.25;5074383;28;20207;-83
2022/08/17 04:34:04;;;;;;;5.03;4.60;;;;;;;22.02;91.17;95728.97;5070014;28;20229;-83
2022/08/17 04:36:31;;;;;;;11.10;9.52;;;;;;;21.96;92.96;95743.91;5078370;28;20315;-84
2022/08/17 04:38:58;;;;;;;8.25;5.45;;;;;;;21.81;92.46;95750.66;5067989;28;20250;-84
2022/08/17 04:44:11;;;;;;;7.57;5.40;;;;;;;21.76;93.05;95754.34;5070080;28;20231;-83
2022/08/17 04:46:38;;;;;;;5.90;5.30;;;;;;;21.80;92.04;95747.09;5085293;28;20468;-83
2022/08/17 04:49:08;;;;;;;6.53;5.20;;;;;;;21.77;89.75;95750.50;5074623;28;20201;-82
2022/08/17 04:51:37;;;;;;;6.80;5.35;;;;;;;21.81;91.07;95773.44;5062790;28;20294;-83
2022/08/17 04:54:07;;;;;;;6.53;5.10;;;;;;;21.83;92.64;95764.88;5080010;28;20193;-83
2022/08/17 04:56:36;;;;;;;6.53;5.45;;;;;;;21.79;93.85;95769.38;5073625;28;20226;-83
2022/08/17 04:59:08;;;;;;;5.72;5.10;;;;;;;21.69;95.28;95784.19;5086137;28;20210;-83
2022/08/17 05:01:37;;;;;;;6.90;5.88;;;;;;;21.62;96.53;95778.34;5087515;28;20224;-83
2022/08/17 05:04:07;;;;;;;8.02;5.97;;;;;;;21.62;97.18;95777.53;5084963;28;20201;-81
2022/08/17 05:06:35;;;;;;;8.27;5.68;;;;;;;21.65;96.55;95780.47;5068551;28;20208;-81
2022/08/17 05:09:03;;;;;;;5.68;5.15;;;;;;;21.66;95.92;95787.59;5070924;28;20209;-81
2022/08/17 05:11:31;;;;;;;8.25;6.03;;;;;;;21.66;94.68;95773.84;5071726;28;20295;-82
2022/08/17 05:14:00;;;;;;;6.40;5.35;;;;;;;21.60;96.33;95777.06;5072190;28;20276;-81
2022/08/17 05:16:28;;;;;;;5.75;5.03;;;;;;;21.47;96.32;95786.97;5078327;28;20221;-79
2022/08/17 05:18:57;;;;;;;6.57;5.40;;;;;;;21.46;96.68;95782.59;5086871;28;20201;-78
2022/08/17 05:21:26;;;;;;;5.90;5.22;;;;;;;21.46;97.37;95760.63;5067826;28;20653;-78
2022/08/17 05:23:57;;;;;;;7.63;5.25;;;;;;;21.46;98.26;95752.38;5072722;28;20201;-78
2022/08/17 05:26:25;;;;;;;9.85;5.57;;;;;;;21.43;98.79;95767.59;5065696;28;20228;-78
2022/08/17 05:28:52;;;;;;;7.35;5.50;;;;;;;21.48;99.92;95775.69;5067225;28;20204;-78
2022/08/17 05:31:21;;;;;;;7.63;5.47;;;;;;;21.53;99.88;95761.81;5067320;28;20209;-78
2022/08/17 05:33:48;;;;;;;5.22;4.72;;;;;;;21.54;100.00;95779.09;5067035;28;20197;-79
2022/08/17 05:36:15;;;;;;;5.57;5.05;;;;;;;21.56;100.00;95790.59;5067084;28;20201;-79
2022/08/17 05:38:43;;;;;;;8.13;6.00;;;;;;;21.52;97.16;95793.16;5075673;28;20196;-80
2022/08/17 05:41:10;;;;;;;5.30;4.80;;;;;;;21.59;94.56;95795.47;5090118;28;20204;-78
2022/08/17 05:43:40;;;;;;;8.10;5.00;;;;;;;21.62;94.00;95794.81;5064207;28;20268;-79
2022/08/17 05:46:15;;;;;;;6.20;5.32;;;;;;;21.53;97.60;95783.78;5072361;28;20233;-80
2022/08/17 05:48:45;;;;;;;5.88;4.85;;;;;;;21.34;100.00;95779.63;5060425;28;20230;-79
2022/08/17 05:51:43;;;;;;;11.65;5.15;;;;;;;21.34;100.00;95782.38;5069855;28;20219;-84
2022/08/17 05:54:22;;;;;;;9.30;5.45;;;;;;;21.34;100.00;95768.66;5077980;28;20208;-83
2022/08/17 05:57:06;;;;;;;7.72;4.75;;;;;;;21.36;100.00;95758.13;5073804;28;20269;-83
2022/08/17 05:59:42;;;;;;;6.75;4.82;;;;;;;21.40;100.00;95756.41;5087067;28;20235;-80
2022/08/17 06:02:19;;;;;;;10.05;5.43;;;;;;;21.48;100.00;95753.72;5087124;28;20236;-79
2022/08/17 06:05:00;;;;;;;6.78;5.70;;;;;;;21.55;100.00;95757.94;5067132;28;20232;-80
2022/08/17 06:07:34;;;;;;;7.53;5.32;;;;;;;21.57;100.00;95751.00;5070871;28;20217;-79
2022/08/17 06:10:12;;;;;;;6.20;5.03;;;;;;;21.53;99.26;95750.00;5066996;28;20203;-79
2022/08/17 06:12:48;;;;;;;5.30;4.80;;;;;;;21.42;98.09;95748.66;5079755;28;20208;-79
2022/08/17 06:15:27;;;;;;;7.03;5.35;;;;;;;21.49;98.31;95751.78;5082570;28;20231;-79
2022/08/17 06:17:58;;;;;;;7.18;5.10;;;;;;;21.60;98.96;95746.84;5069387;28;20319;-80
2022/08/17 06:20:32;;;;;;;7.85;5.10;;;;;;;21.56;97.17;95743.06;5085594;28;20208;-80
2022/08/17 06:23:07;;;;;;;7.85;5.15;;;;;;;21.57;97.92;95729.03;5080000;28;20215;-80
2022/08/17 06:25:42;;;;;;;5.85;5.32;;;;;;;21.67;97.56;95736.19;5059249;28;20248;-79
2022/08/17 06:28:15;;;;;;;9.30;5.20;;;;;;;21.81;96.57;95723.16;5059970;28;20254;-81
2022/08/17 06:30:49;;;;;;;6.80;5.18;;;;;;;21.81;93.48;95723.97;5087785;28;20209;-79
2022/08/17 06:33:21;;;;;;;7.65;5.32;;;;;;;21.92;93.72;95721.78;5068266;28;20260;-82
2022/08/17 06:36:01;;;;;;;6.45;4.95;;;;;;;21.96;93.47;95717.25;5083983;28;20233;-82
2022/08/17 06:38:41;;;;;;;5.82;5.10;;;;;;;21.98;94.59;95720.53;5069665;28;20273;-82
2022/08/17 06:41:18;;;;;;;7.57;5.55;;;;;;;21.97;100.00;95726.31;5062361;28;20201;-82
2022/08/17 06:43:59;;;;;;;9.57;6.00;;;;;;;21.94;93.63;95713.22;5059391;28;20239;-81
2022/08/17 06:46:33;;;;;;;5.43;4.93;;;;;;;22.06;89.64;95718.94;5062275;28;20233;-81
2022/08/17 06:49:11;;;;;;;6.65;4.57;;;;;;;22.21;89.86;95707.47;5067558;28;20215;-82
2022/08/17 06:51:45;;;;;;;6.32;4.78;;;;;;;22.27;91.75;95708.97;5084178;28;20204;-82
2022/08/17 06:54:19;;;;;;;5.50;4.97;;;;;;;22.23;93.61;95702.47;5063866;28;20210;-82
2022/08/17 06:56:52;;;;;;;5.47;4.90;;;;;;;22.09;93.32;95705.38;5068514;28;20220;-81
2022/08/17 06:59:24;;;;;;;6.88;5.20;;;;;;;22.10;92.26;95686.94;5081612;28;20204;-80
2022/08/17 07:01:55;;;;;;;5.72;5.15;;;;;;;22.20;91.83;95681.94;5065337;28;20264;-81
2022/08/17 07:04:28;;;;;;;5.93;5.20;;;;;;;22.30;90.37;95675.31;5077817;28;20208;-81
2022/08/17 07:08:00;;;;;;;6.63;4.97;;;;;;;22.40;90.93;95669.50;5062292;28;20228;-82
2022/08/17 07:09:51;;;;;;;5.97;5.15;;;;;;;22.49;90.09;95667.59;5091206;28;20197;-81
2022/08/17 07:12:22;;;;;;;8.13;5.03;;;;;;;22.60;88.57;95663.38;5066872;28;20221;-82
2022/08/17 07:14:53;;;;;;;5.43;4.90;;;;;;;22.71;88.11;95657.56;5081511;28;20198;-81
2022/08/17 07:17:23;;;;;;;6.40;5.50;;;;;;;22.84;91.73;95654.66;5056828;28;20204;-81
2022/08/17 07:19:57;;;;;;;8.10;5.15;;;;;;;22.99;90.34;95664.38;5056244;28;20198;-82
2022/08/17 07:22:35;;;;;;;8.43;5.47;;;;;;;23.04;89.31;95661.47;5072833;28;20208;-82
2022/08/17 07:25:06;;;;;;;6.13;5.00;;;;;;;23.16;92.55;95653.31;5072094;28;20196;-81
2022/08/17 07:27:40;;;;;;;6.85;5.38;;;;;;;23.13;92.01;95654.00;5063544;28;20273;-81
2022/08/17 07:30:11;;;;;;;7.80;5.93;;;;;;;23.17;88.90;95649.44;5070597;28;20204;-82
2022/08/17 07:32:44;;;;;;;5.90;5.30;;;;;;;23.30;91.18;95656.72;5074207;28;20216;-82
2022/08/17 07:35:18;;;;;;;8.00;5.30;;;;;;;23.30;88.81;95661.41;5063521;28;20277;-82
2022/08/17 07:37:51;;;;;;;6.68;5.20;;;;;;;23.41;89.15;95659.91;5063138;28;20300;-81
2022/08/17 07:40:26;;;;;;;6.60;5.47;;;;;;;23.37;89.34;95651.50;5068436;28;20216;-81
2022/08/17 07:43:19;;;;;;;6.70;5.13;;;;;;;23.45;90.23;95649.06;5064209;28;20213;-82
2022/08/17 07:48:50;;;;;;;10.13;6.35;;;;;;;23.62;87.66;95655.34;5060145;28;20204;-81
2022/08/17 07:51:26;;;;;;;8.52;5.80;;;;;;;23.80;87.17;95658.84;5090961;28;20204;-81
2022/08/17 07:53:58;;;;;;;6.25;5.65;;;;;;;23.98;87.58;95668.66;5079372;28;20203;-81
2022/08/17 07:56:37;;;;;;;8.13;5.93;;;;;;;24.14;85.79;95661.44;5063928;28;20225;-81
2022/08/17 07:59:24;;;;;;;7.78;5.90;;;;;;;24.38;85.72;95660.00;5064503;28;20207;-81
2022/08/17 08:02:15;;;;;;;6.30;5.70;;;;;;;24.62;82.11;95662.09;5064957;28;20246;-82
2022/08/17 08:04:45;;;;;;;10.25;5.95;;;;;;;24.85;78.34;95663.38;5064995;28;20295;-82
2022/08/17 08:07:23;;;;;;;6.32;5.50;;;;;;;25.04;78.75;95665.69;5068030;28;20239;-82
2022/08/17 08:10:05;;;;;;;8.00;5.78;;;;;;;25.29;77.39;95672.09;5085753;28;20283;-81
2022/08/17 08:12:35;;;;;;;10.20;5.70;;;;;;;25.16;75.55;95676.78;5069653;28;20201;-81
2022/08/17 08:15:10;;;;;;;7.07;6.07;;;;;;;25.01;74.64;95682.94;5085443;28;20205;-81
2022/08/17 08:17:48;;;;;;;8.88;5.82;;;;;;;25.00;76.79;95684.91;5073492;28;20265;-82
2022/08/17 08:20:15;;;;;;;8.60;5.85;;;;;;;25.06;74.62;95685.50;5073559;28;20201;-81
2022/08/17 08:22:56;;;;;;;6.18;5.57;;;;;;;25.06;77.46;95688.25;5071453;28;20212;-81
2022/08/17 08:25:32;;;;;;;6.95;5.55;;;;;;;25.09;76.26;95691.16;5066793;28;20240;-79
2022/08/17 08:28:12;;;;;;;8.48;6.40;;;;;;;25.19;76.39;95687.94;5078431;28;20228;-83
2022/08/17 08:30:46;;;;;;;6.55;5.63;;;;;;;25.27;78.12;95686.25;5084890;28;20251;-83
2022/08/17 08:33:38;;;;;;;7.85;5.50;;;;;;;25.27;76.54;95691.78;5079362;28;20197;-83
2022/08/17 08:36:25;;;;;;;7.15;5.40;;;;;;;25.33;80.61;95689.63;5084612;28;20205;-82
2022/08/17 08:39:00;;;;;;;7.03;5.90;;;;;;;25.02;79.12;95690.06;5078281;28;20320;-83
2022/08/17 08:41:43;;;;;;;6.88;5.10;;;;;;;24.88;82.30;95691.13;5086303;28;20219;-82
2022/08/17 08:44:26;;;;;;;7.57;5.55;;;;;;;24.62;88.57;95689.69;5088097;28;20212;-83
2022/08/17 08:47:06;;;;;;;7.03;5.55;;;;;;;24.33;90.21;95672.03;5066821;28;20220;-82
2022/08/17 08:49:59;;;;;;;6.03;5.43;;;;;;;24.41;90.40;95700.75;5071189;28;20328;-82
2022/08/17 08:52:45;;;;;;;9.13;5.95;;;;;;;24.33;89.43;95707.13;5059793;28;20208;-83
2022/08/17 08:55:18;;;;;;;6.15;5.57;;;;;;;24.30;92.97;95700.31;5062948;28;20213;-83
2022/08/17 08:57:51;;;;;;;9.30;5.55;;;;;;;24.16;91.28;95701.66;5067352;28;20232;-82
2022/08/17 09:00:21;;;;;;;5.97;5.47;;;;;;;24.13;89.79;95695.66;5088939;28;20237;-83
2022/08/17 09:03:15;;;;;;;6.47;5.30;;;;;;;23.99;88.74;95692.31;5082583;28;20258;-82
2022/08/17 09:06:20;;;;;;;7.10;6.13;;;;;;;23.86;94.31;95698.84;5070508;28;20224;-83
2022/08/17 09:08:59;;;;;;;8.90;6.65;;;;;;;23.86;93.86;95698.06;5056495;28;20295;-83
2022/08/17 09:11:37;;;;;;;7.50;5.40;;;;;;;23.77;89.94;95700.84;5068479;28;20209;-83
2022/08/17 09:14:15;;;;;;;10.90;6.07;;;;;;;23.75;84.47;95692.09;5068800;28;20205;-82
2022/08/17 09:16:47;;;;;;;6.22;5.63;;;;;;;23.81;88.17;95696.31;5075504;28;20224;-82
2022/08/17 09:19:19;;;;;;;6.85;5.63;;;;;;;23.91;89.30;95703.38;5073804;28;20306;-83
2022/08/17 09:21:52;;;;;;;6.30;5.68;;;;;;;23.87;90.04;95700.47;5069471;28;20204;-83
2022/08/17 09:24:25;;;;;;;7.18;5.60;;;;;;;24.33;90.08;95702.38;5069467;28;20205;-83
2022/08/17 09:26:57;;;;;;;6.07;5.47;;;;;;;24.56;81.07;95691.88;5083849;28;20331;-82
2022/08/17 09:29:31;;;;;;;6.85;6.13;;;;;;;24.68;79.05;95700.22;5086851;28;20201;-83
2022/08/17 09:32:02;;;;;;;8.15;6.60;;;;;;;24.74;74.77;95707.16;5073123;28;20231;-83
2022/08/17 09:34:35;;;;;;;6.43;5.60;;;;;;;24.83;74.82;95694.09;5070148;28;20212;-82
2022/08/17 09:37:15;;;;;;;6.60;5.82;;;;;;;24.81;75.91;95696.38;5055901;28;20214;-83
2022/08/17 09:39:50;;;;;;;5.80;5.20;;;;;;;24.83;76.25;95709.88;5060141;28;20244;-82
2022/08/17 09:42:24;;;;;;;8.13;6.18;;;;;;;24.90;78.34;95710.13;5087365;28;20211;-82
2022/08/17 09:45:02;;;;;;;8.57;6.43;;;;;;;25.00;75.11;95708.94;5081391;28;20219;-82
2022/08/17 09:47:39;;;;;;;6.32;5.72;;;;;;;25.08;76.91;95703.34;5092788;28;20216;-82
2022/08/17 09:50:13;;;;;;;9.27;6.05;;;;;;;25.39;74.71;95705.66;5084222;28;20209;-83
2022/08/17 09:52:42;;;;;;;7.10;6.40;;;;;;;25.76;74.82;95709.38;5066104;28;20206;-83
2022/08/17 09:55:09;;;;;;;7.03;6.32;;;;;;;25.92;71.97;95703.97;5070857;28;20211;-83
2022/08/17 09:57:54;;;;;;;6.25;5.65;;;;;;;26.13;68.01;95712.16;5073184;28;20221;-83
2022/08/17 10:00:26;;;;;;;6.63;5.82;;;;;;;26.36;64.87;95716.94;5068596;28;20224;-82
2022/08/17 10:03:24;;;;;;;6.20;5.50;;;;;;;26.69;64.43;95721.53;5070901;28;20228;-82
2022/08/17 10:05:58;;;;;;;6.35;5.60;;;;;;;27.01;66.63;95723.31;5075718;28;20196;-82
2022/08/17 10:08:36;;;;;;;7.38;6.07;;;;;;;27.23;64.69;95710.09;5065848;28;20210;-83
2022/08/17 10:11:21;;;;;;;7.35;5.80;;;;;;;27.42;64.85;95721.34;5085569;28;20208;-83
2022/08/17 10:13:55;;;;;;;7.05;5.82;;;;;;;27.67;65.83;95717.31;5070847;28;20208;-83
2022/08/17 10:16:36;;;;;;;10.93;5.15;;;;;;;27.81;59.55;95714.94;5083882;28;20207;-83
2022/08/17 10:19:12;;;;;;;6.80;5.43;;;;;;;27.50;58.96;95698.19;5067795;28;20243;-83
2022/08/17 10:27:22;;;;;;;6.20;5.60;;;;;;;26.71;62.02;95717.22;5062163;28;20220;-82
2022/08/17 10:29:53;;;;;;;7.10;5.55;;;;;;;26.97;62.18;95722.41;5062204;28;20201;-82
2022/08/17 10:32:31;;;;;;;6.30;5.38;;;;;;;26.85;64.00;95714.09;5083946;28;20266;-82
2022/08/17 10:35:24;;;;;;;6.38;5.78;;;;;;;26.66;63.00;95731.31;5068063;28;20215;-84
2022/08/17 10:38:14;;;;;;;5.65;5.10;;;;;;;26.69;62.50;95738.13;5063419;28;20201;-82
2022/08/17 10:40:49;;;;;;;9.15;5.80;;;;;;;26.63;62.73;95714.59;5079394;28;20296;-80
2022/08/17 10:43:31;;;;;;;8.45;5.35;;;;;;;26.54;63.18;95725.78;5086192;28;20265;-83
2022/08/17 10:46:08;;;;;;;6.20;5.60;;;;;;;26.28;64.31;95720.63;5078931;28;20251;-83
2022/08/17 10:48:38;;;;;;;8.48;5.63;;;;;;;26.15;63.36;95721.72;5086641;28;20229;-82
2022/08/17 10:51:08;;;;;;;7.25;5.45;;;;;;;26.17;64.50;95733.28;5068692;28;20298;-82
2022/08/17 10:54:00;;;;;;;6.07;5.47;;;;;;;26.31;65.22;95725.47;5075138;28;20204;-83
2022/08/17 10:56:46;;;;;;;6.05;5.25;;;;;;;26.43;64.54;95737.69;5062712;28;20224;-82
2022/08/17 10:59:47;;;;;;;6.88;5.93;;;;;;;26.54;64.39;95731.31;5068124;28;20213;-83
2022/08/17 11:02:24;;;;;;;6.05;5.45;;;;;;;26.82;61.43;95745.25;5060735;28;20286;-83
2022/08/17 11:05:08;;;;;;;6.90;5.45;;;;;;;27.10;60.12;95735.09;5065430;28;20200;-83
2022/08/17 11:07:57;;;;;;;6.43;5.80;;;;;;;26.89;60.74;95731.63;5070461;28;20227;-84
2022/08/17 11:10:49;;;;;;;7.15;5.35;;;;;;;27.07;60.93;95730.22;5067013;28;20220;-83
2022/08/17 11:13:28;;;;;;;6.35;5.60;;;;;;;27.27;60.88;95724.88;5079089;28;20208;-83
2022/08/17 11:16:09;;;;;;;7.35;5.85;;;;;;;27.44;59.00;95724.56;5078686;28;20206;-83
2022/08/17 11:19:08;;;;;;;5.65;4.80;;;;;;;27.59;58.46;95711.91;5058461;28;20244;-83
2022/08/17 11:22:04;;;;;;;6.10;5.18;;;;;;;27.98;58.66;95710.22;5082232;28;20235;-83
2022/08/17 11:24:35;;;;;;;5.70;5.20;;;;;;;28.29;56.53;95701.91;5052713;28;20280;-84
2022/08/17 11:27:09;;;;;;;6.00;5.20;;;;;;;28.26;57.07;95701.81;5088320;28;20248;-84
2022/08/17 11:29:46;;;;;;;5.85;5.35;;;;;;;28.53;57.46;95710.03;5071524;28;20204;-84
2022/08/17 11:32:31;;;;;;;6.10;5.45;;;;;;;28.61;56.13;95711.00;5064313;28;20204;-83
2022/08/17 11:35:21;;;;;;;6.72;5.30;;;;;;;28.42;55.78;95706.19;5072685;28;20205;-83
2022/08/17 11:38:01;;;;;;;6.70;5.50;;;;;;;28.29;57.53;95713.00;5069161;28;20208;-83
2022/08/17 11:40:43;;;;;;;7.25;5.13;;;;;;;28.11;57.94;95708.94;5072558;28;20201;-83
2022/08/17 11:43:44;;;;;;;11.40;5.10;;;;;;;28.24;56.50;95700.19;5082707;28;20224;-83
2022/08/17 11:46:20;;;;;;;8.13;5.20;;;;;;;28.28;56.71;95697.50;5084413;28;20220;-84
2022/08/17 11:52:10;;;;;;;6.43;5.32;;;;;;;28.36;56.32;95690.16;5065757;28;20196;-83
2022/08/17 11:54:44;;;;;;;5.80;5.05;;;;;;;28.31;58.19;95690.44;5089497;28;20204;-83
2022/08/17 11:58:04;;;;;;;5.95;5.07;;;;;;;28.35;58.83;95694.91;5100568;28;20231;-84
2022/08/17 12:00:50;;;;;;;9.43;5.55;;;;;;;28.59;57.54;95699.44;5027346;28;20229;-83
2022/08/17 12:03:47;;;;;;;6.25;5.65;;;;;;;28.83;55.91;95687.31;5026321;28;20206;-83
2022/08/17 12:06:38;;;;;;;6.32;5.50;;;;;;;29.08;56.08;95687.88;5082921;28;20204;-83
2022/08/17 12:09:12;;;;;;;6.13;5.53;;;;;;;29.06;54.53;95685.44;5070585;28;20205;-83
2022/08/17 12:11:46;;;;;;;5.90;5.40;;;;;;;29.11;54.11;95681.56;5072744;28;20213;-83
2022/08/17 12:14:17;;;;;;;6.22;5.30;;;;;;;29.10;53.23;95672.41;5079397;28;20269;-83
2022/08/17 12:16:44;;;;;;;7.00;5.28;;;;;;;28.96;54.04;95684.03;5080486;28;20213;-83
2022/08/17 12:19:21;;;;;;;5.60;5.10;;;;;;;29.05;54.11;95691.34;5066608;28;20267;-83
2022/08/17 12:21:56;;;;;;;6.13;5.53;;;;;;;29.20;53.12;95690.47;5070326;28;20214;-83
2022/08/17 12:24:36;;;;;;;5.65;5.15;;;;;;;29.30;53.63;95687.94;5088551;28;20205;-83
2022/08/17 12:27:07;;;;;;;6.50;5.53;;;;;;;29.28;55.44;95681.91;5068088;28;20232;-83